createdAt,value
2023-01-01T00:02:45.181Z,18.7
2023-01-01T00:07:47.486Z,18.7
2023-01-01T00:12:49.731Z,18.7
2023-01-01T00:17:52.089Z,18.6
2023-01-01T00:22:56.877Z,18.6
2023-01-01T00:27:59.300Z,18.6
2023-01-01T00:33:01.536Z,18.6
2023-01-01T00:38:03.665Z,18.5
2023-01-01T00:43:05.784Z,18.5
2023-01-01T00:48:07.962Z,18.5
2023-01-01T00:58:12.209Z,18.5
2023-01-01T01:03:14.433Z,18.5
2023-01-01T01:08:16.541Z,18.5
2023-01-01T01:13:18.692Z,18.5
2023-01-01T01:18:20.858Z,18.5
2023-01-01T01:23:23.166Z,18.5
2023-01-01T01:28:25.481Z,18.5
2023-01-01T01:33:27.815Z,18.5
2023-01-01T01:38:30.177Z,18.5
2023-01-01T01:43:32.339Z,18.4
2023-01-01T01:48:34.596Z,18.4
2023-01-01T01:53:36.765Z,18.4
2023-01-01T01:58:38.909Z,18.4
2023-01-01T02:03:41.168Z,18.4
2023-01-01T02:08:43.445Z,18.4
2023-01-01T02:13:45.776Z,18.3
2023-01-01T02:18:48.037Z,18.3
2023-01-01T02:23:50.200Z,18.3
2023-01-01T02:28:52.356Z,18.3
2023-01-01T02:33:54.520Z,18.3
2023-01-01T02:38:56.696Z,18.3
2023-01-01T02:49:04.809Z,18.3
2023-01-01T02:54:03.307Z,18.3
2023-01-01T02:59:05.452Z,18.3
2023-01-01T03:04:07.748Z,18.2
2023-01-01T03:09:10.022Z,18.2
2023-01-01T03:14:12.171Z,18.2
2023-01-01T03:19:14.564Z,18.2
2023-01-01T03:24:16.701Z,18.2
2023-01-01T03:29:18.832Z,18.2
2023-01-01T03:34:21.001Z,18.2
2023-01-01T03:39:23.126Z,18.2
2023-01-01T03:44:25.264Z,18.2
2023-01-01T03:49:27.667Z,18.2
2023-01-01T03:54:29.799Z,18.2
2023-01-01T03:59:31.945Z,18.2
2023-01-01T04:04:34.111Z,18.2
2023-01-01T04:09:36.372Z,18.1
2023-01-01T04:14:38.522Z,18.1
2023-01-01T04:19:41.089Z,18.1
2023-01-01T04:24:43.237Z,18.1
2023-01-01T04:29:45.487Z,18.1
2023-01-01T04:34:47.761Z,18.1
2023-01-01T04:39:50.056Z,18.1
2023-01-01T04:44:52.213Z,18.1
2023-01-01T04:49:54.547Z,18.1
2023-01-01T04:54:56.674Z,18.1
2023-01-01T04:59:58.904Z,18.1
2023-01-01T05:05:01.260Z,18.1
2023-01-01T05:10:03.396Z,18.1
2023-01-01T05:15:05.700Z,18.1
2023-01-01T05:20:07.868Z,18.1
2023-01-01T05:25:10.085Z,18.1
2023-01-01T05:30:12.259Z,18.1
2023-01-01T05:35:14.424Z,18.2
2023-01-01T05:40:16.551Z,18.2
2023-01-01T05:45:18.687Z,18.3
2023-01-01T05:50:20.853Z,18.4
2023-01-01T05:55:22.967Z,18.5
2023-01-01T06:00:25.111Z,18.6
2023-01-01T06:05:27.282Z,18.7
2023-01-01T06:10:29.409Z,18.8
2023-01-01T06:15:31.545Z,18.9
2023-01-01T06:20:33.864Z,19
2023-01-01T06:25:35.980Z,19.1
2023-01-01T06:30:38.154Z,19.2
2023-01-01T06:35:40.268Z,19.3
2023-01-01T06:40:42.391Z,19.4
2023-01-01T06:45:44.642Z,19.4
2023-01-01T06:50:46.694Z,19.5
2023-01-01T06:55:53.323Z,19.5
2023-01-01T07:00:50.956Z,19.6
2023-01-01T07:05:53.275Z,19.6
2023-01-01T07:10:55.538Z,19.6
2023-01-01T07:15:57.738Z,19.7
2023-01-01T07:20:59.839Z,19.7
2023-01-01T07:26:01.968Z,19.7
2023-01-01T07:31:04.110Z,19.7
2023-01-01T07:36:06.490Z,19.7
2023-01-01T07:41:08.885Z,19.7
2023-01-01T07:46:11.088Z,19.7
2023-01-01T07:51:13.292Z,19.6
2023-01-01T07:56:15.586Z,19.6
2023-01-01T08:01:17.960Z,19.6
2023-01-01T08:06:20.154Z,19.6
2023-01-01T08:11:22.522Z,19.6
2023-01-01T08:16:24.734Z,19.6
2023-01-01T08:21:26.912Z,19.5
2023-01-01T08:26:29.106Z,19.5
2023-01-01T08:31:31.536Z,19.5
2023-01-01T08:36:33.757Z,19.5
2023-01-01T08:41:35.988Z,19.5
2023-01-01T08:46:38.193Z,19.5
2023-01-01T08:51:40.564Z,19.5
2023-01-01T08:56:42.687Z,19.5
2023-01-01T09:01:45.091Z,19.5
2023-01-01T09:06:47.325Z,19.4
2023-01-01T09:11:49.499Z,19.4
2023-01-01T09:16:51.789Z,19.4
2023-01-01T09:21:54.134Z,19.4
2023-01-01T09:26:56.259Z,19.3
2023-01-01T09:31:58.840Z,19.3
2023-01-01T09:37:01.103Z,19.3
2023-01-01T09:42:03.407Z,19.3
2023-01-01T09:47:05.545Z,19.3
2023-01-01T09:52:07.871Z,19.3
2023-01-01T09:57:13.562Z,19.3
2023-01-01T10:02:12.185Z,19.3
2023-01-01T10:07:14.344Z,19.3
2023-01-01T10:12:16.606Z,19.3
2023-01-01T10:17:18.754Z,19.2
2023-01-01T10:22:21.033Z,19.2
2023-01-01T10:27:23.312Z,19.2
2023-01-01T10:32:25.531Z,19.3
2023-01-01T10:37:27.894Z,19.3
2023-01-01T10:42:30.018Z,19.3
2023-01-01T10:47:32.164Z,19.3
2023-01-01T10:52:34.570Z,19.3
2023-01-01T10:57:36.917Z,19.2
2023-01-01T11:02:39.159Z,19.2
2023-01-01T11:07:41.426Z,19.2
2023-01-01T11:13:04.583Z,19.2
2023-01-01T11:17:45.897Z,19.2
2023-01-01T11:22:48.073Z,19.2
2023-01-01T11:27:50.188Z,19.2
2023-01-01T11:32:55.583Z,19.2
2023-01-01T11:37:54.624Z,19.3
2023-01-01T11:42:57.987Z,19.3
2023-01-01T11:47:58.879Z,19.3
2023-01-01T11:53:04.243Z,19.2
2023-01-01T11:58:06.544Z,19.2
2023-01-01T12:03:08.718Z,19.2
2023-01-01T12:08:10.838Z,19.2
2023-01-01T12:13:12.933Z,19.2
2023-01-01T12:18:15.104Z,19.2
2023-01-01T12:23:17.400Z,19.2
2023-01-01T12:28:19.490Z,19.2
2023-01-01T12:33:21.621Z,19.2
2023-01-01T12:38:23.789Z,19.2
2023-01-01T12:43:25.896Z,19.2
2023-01-01T12:48:28.143Z,19.2
2023-01-01T12:53:30.341Z,19.2
2023-01-01T12:58:32.460Z,19.2
2023-01-01T13:03:34.634Z,19.2
2023-01-01T13:08:37.035Z,19.2
2023-01-01T13:13:39.143Z,19.2
2023-01-01T13:18:41.423Z,19.2
2023-01-01T13:23:43.608Z,19.2
2023-01-01T13:28:45.722Z,19.2
2023-01-01T13:33:48.007Z,19.2
2023-01-01T13:38:50.315Z,19.2
2023-01-01T13:43:52.533Z,19.3
2023-01-01T13:48:59.407Z,19.3
2023-01-01T13:53:57.197Z,19.4
2023-01-01T13:58:59.308Z,19.5
2023-01-01T14:04:01.548Z,19.5
2023-01-01T14:09:03.704Z,19.6
2023-01-01T14:14:05.841Z,19.7
2023-01-01T14:19:12.706Z,19.7
2023-01-01T14:24:10.234Z,19.8
2023-01-01T14:29:12.343Z,19.9
2023-01-01T14:34:14.497Z,20
2023-01-01T14:39:16.837Z,20
2023-01-01T14:44:18.758Z,20.1
2023-01-01T14:49:20.905Z,20.1
2023-01-01T14:54:23.217Z,20.1
2023-01-01T14:59:25.352Z,20
2023-01-01T15:04:27.511Z,20
2023-01-01T15:09:29.810Z,20
2023-01-01T15:14:31.821Z,20
2023-01-01T15:19:34.085Z,20
2023-01-01T15:24:36.349Z,20
2023-01-01T15:29:38.599Z,20
2023-01-01T15:34:40.863Z,20
2023-01-01T15:39:43.186Z,20
2023-01-01T15:44:45.331Z,20.1
2023-01-01T15:49:47.582Z,20.1
2023-01-01T15:54:49.830Z,20.1
2023-01-01T15:59:52.023Z,20
2023-01-01T16:04:54.310Z,20
2023-01-01T16:09:57.953Z,19.9
2023-01-01T16:14:58.741Z,19.9
2023-01-01T16:20:00.928Z,19.9
2023-01-01T16:25:03.193Z,19.9
2023-01-01T16:30:05.388Z,19.8
2023-01-01T16:35:11.750Z,19.8
2023-01-01T16:40:09.715Z,19.8
2023-01-01T16:45:11.889Z,19.8
2023-01-01T16:50:14.045Z,19.7
2023-01-01T16:55:16.218Z,19.7
2023-01-01T17:00:18.333Z,19.7
2023-01-01T17:05:20.467Z,19.7
2023-01-01T17:10:22.772Z,19.7
2023-01-01T17:15:24.859Z,19.7
2023-01-01T17:20:27.027Z,19.7
2023-01-01T17:25:29.445Z,19.8
2023-01-01T17:30:31.466Z,19.8
2023-01-01T17:35:33.635Z,19.8
2023-01-01T17:40:37.119Z,19.8
2023-01-01T17:45:37.992Z,19.8
2023-01-01T17:50:40.146Z,19.7
2023-01-01T17:55:42.418Z,19.6
2023-01-01T18:00:44.423Z,19.5
2023-01-01T18:05:46.654Z,19.5
2023-01-01T18:10:48.904Z,19.4
2023-01-01T18:15:51.255Z,19.4
2023-01-01T18:20:53.423Z,19.4
2023-01-01T18:25:55.672Z,19.4
2023-01-01T18:30:57.904Z,19.4
2023-01-01T18:36:00.057Z,19.4
2023-01-01T18:41:02.215Z,19.4
2023-01-01T18:46:04.400Z,19.4
2023-01-01T18:51:06.523Z,19.4
2023-01-01T18:56:08.758Z,19.5
2023-01-01T19:01:10.983Z,19.6
2023-01-01T19:06:13.087Z,19.7
2023-01-01T19:11:15.442Z,19.8
2023-01-01T19:16:21.109Z,19.9
2023-01-01T19:21:19.812Z,20
2023-01-01T19:26:22.024Z,20
2023-01-01T19:31:24.211Z,20.1
2023-01-01T19:36:26.268Z,20.2
2023-01-01T19:41:28.534Z,20.4
2023-01-01T19:46:30.670Z,20.6
2023-01-01T19:51:32.914Z,20.7
2023-01-01T19:56:35.235Z,20.7
2023-01-01T20:01:37.797Z,20.7
2023-01-01T20:06:39.774Z,20.6
2023-01-01T20:11:42.041Z,20.5
2023-01-01T20:16:44.287Z,20.4
2023-01-01T20:21:46.444Z,20.3
2023-01-01T20:26:48.694Z,20.3
2023-01-01T20:31:50.844Z,20.3
2023-01-01T20:36:52.853Z,20.3
2023-01-01T20:41:55.044Z,20.3
2023-01-01T20:46:57.149Z,20.2
2023-01-01T20:51:59.277Z,20.2
2023-01-01T20:57:01.473Z,20.2
2023-01-01T21:02:03.746Z,20.2
2023-01-01T21:07:05.827Z,20.2
2023-01-01T21:12:08.071Z,20.1
2023-01-01T21:17:10.173Z,20.1
2023-01-01T21:22:12.323Z,20.1
2023-01-01T21:27:14.604Z,20.1
2023-01-01T21:32:16.956Z,20
2023-01-01T21:37:19.034Z,20
2023-01-01T21:42:21.231Z,20
2023-01-01T21:47:23.354Z,19.9
2023-01-01T21:52:25.509Z,19.9
2023-01-01T21:57:27.650Z,19.9
2023-01-01T22:02:29.943Z,19.9
2023-01-01T22:08:00.361Z,19.8
2023-01-01T22:12:34.199Z,19.8
2023-01-01T22:17:37.361Z,19.8
2023-01-01T22:22:38.491Z,19.7
2023-01-01T22:27:40.649Z,19.7
2023-01-01T22:32:42.772Z,19.7
2023-01-01T22:37:46.491Z,19.7
2023-01-01T22:42:47.226Z,19.7
2023-01-01T22:47:49.449Z,19.7
2023-01-01T22:52:51.742Z,19.7
2023-01-01T22:57:54.055Z,19.7
2023-01-01T23:02:56.303Z,19.6
2023-01-01T23:07:58.463Z,19.6
2023-01-01T23:13:00.650Z,19.6
2023-01-01T23:18:02.777Z,19.6
2023-01-01T23:23:05.079Z,19.6
2023-01-01T23:28:07.263Z,19.6
2023-01-01T23:33:09.497Z,19.6
2023-01-01T23:38:11.726Z,19.5
2023-01-01T23:43:13.906Z,19.5
2023-01-01T23:48:16.061Z,19.5
2023-01-01T23:53:18.238Z,19.5
2023-01-01T23:58:20.525Z,19.5
